Terminal Aerodrome Forecast
Issued by NWS

Home | Current Version | Previous Version | Graphics & Text | Print | Product List | Glossary On
Versions: 1 2 3 4 5 6 7 8 9 10 11 12 13 14 15 16 17 18
000
FTUS43 KGRB 221131
TAFMTW
TAF
KMTW 221131Z 2212/2312 31006KT P6SM SCT035
      TEMPO 2212/2215 BKN035
     FM221600 24006KT P6SM SCT250
     FM230200 22009KT P6SM SCT060 OVC080 PROB30 2304/2310 4SM
      -FZRASN OVC030
     FM231000 23007KT P6SM BKN035=

USA.gov is the U.S. government's official web portal to all federal, state and local government web resources and services.